Fayette, New York
Current Conditions -  °F | °C
As of 9:53 PM on Thursday 27 Nov 2014 (Local Time) from KPEO Reporting Station
Broken Clouds Broken Clouds  
Wind Chill: 29°   Ceiling: 3600
Heat Index: 29°   Visibility: 10mi
Dew Point: 25°   Wind: 3mph
Humidity: 85%   Direction: 280°W
Pressure: 30.06"   Gusts: NA
Location:  42.81°N, 76.81°W
Report Text: KPEO 280253Z AUTO 28003KT 10SM BKN036 M02/M04 A3006 RMK AO2 SNB0155E13B32E43 SLP190 P0000 60000 T10171039 50003
Loading
Personal Weather Stations






























Interactive Weather Map New forecast layout! Learn more

10-Day Weather Forecast

Advertisements
Track Severe Weather on mobile